sensor_id;sensor_type;location;lat;lon;timestamp;P1;durP1;ratioP1;P2;durP2;ratioP2
26211;SDS011;13951;49.516;6.094;2023-07-28T03:57:32;1.77;;;1.42;;
26211;SDS011;13951;49.516;6.094;2023-07-28T04:00:34;2.38;;;1.58;;
26211;SDS011;13951;49.516;6.094;2023-07-28T04:03:07;6.65;;;1.67;;
26211;SDS011;13951;49.516;6.094;2023-07-28T04:05:41;3.17;;;1.58;;
26211;SDS011;13951;49.516;6.094;2023-07-28T04:08:14;1.52;;;1.10;;
26211;SDS011;13951;49.516;6.094;2023-07-28T04:10:52;4.65;;;1.70;;
26211;SDS011;13951;49.516;6.094;2023-07-28T04:13:28;2.15;;;1.48;;
26211;SDS011;13951;49.516;6.094;2023-07-28T04:16:03;1.95;;;1.75;;
26211;SDS011;13951;49.516;6.094;2023-07-28T04:18:42;1.85;;;1.63;;
26211;SDS011;13951;49.516;6.094;2023-07-28T04:21:15;3.55;;;1.55;;
26211;SDS011;13951;49.516;6.094;2023-07-28T04:24:08;2.25;;;1.40;;
26211;SDS011;13951;49.516;6.094;2023-07-28T04:27:43;3.70;;;1.35;;
26211;SDS011;13951;49.516;6.094;2023-07-28T04:30:21;1.77;;;1.60;;
26211;SDS011;13951;49.516;6.094;2023-07-28T04:32:55;2.97;;;1.60;;
26211;SDS011;13951;49.516;6.094;2023-07-28T04:35:34;5.18;;;1.88;;
26211;SDS011;13951;49.516;6.094;2023-07-28T04:38:18;2.42;;;1.83;;
26211;SDS011;13951;49.516;6.094;2023-07-28T04:40:54;2.13;;;1.90;;
26211;SDS011;13951;49.516;6.094;2023-07-28T04:43:52;2.47;;;2.13;;
26211;SDS011;13951;49.516;6.094;2023-07-28T04:46:37;3.53;;;2.15;;
26211;SDS011;13951;49.516;6.094;2023-07-28T04:53:17;2.50;;;2.10;;
26211;SDS011;13951;49.516;6.094;2023-07-28T04:56:41;4.80;;;2.40;;
26211;SDS011;13951;49.516;6.094;2023-07-28T05:03:21;2.80;;;2.35;;
26211;SDS011;13951;49.516;6.094;2023-07-28T05:07:07;4.30;;;2.45;;
26211;SDS011;13951;49.516;6.094;2023-07-28T05:10:30;3.10;;;2.47;;
26211;SDS011;13951;49.516;6.094;2023-07-28T05:17:44;3.03;;;2.55;;
26211;SDS011;13951;49.516;6.094;2023-07-28T05:31:41;5.20;;;3.17;;
26211;SDS011;13951;49.516;6.094;2023-07-28T05:34:44;7.00;;;3.75;;
26211;SDS011;13951;49.516;6.094;2023-07-28T05:37:35;8.43;;;4.30;;
26211;SDS011;13951;49.516;6.094;2023-07-28T05:40:10;5.63;;;4.28;;
26211;SDS011;13951;49.516;6.094;2023-07-28T05:42:45;6.15;;;3.88;;
26211;SDS011;13951;49.516;6.094;2023-07-28T05:45:19;5.00;;;3.65;;
26211;SDS011;13951;49.516;6.094;2023-07-28T05:47:56;5.03;;;3.72;;
26211;SDS011;13951;49.516;6.094;2023-07-28T05:50:29;5.38;;;3.60;;
26211;SDS011;13951;49.516;6.094;2023-07-28T05:53:02;5.18;;;3.35;;
26211;SDS011;13951;49.516;6.094;2023-07-28T05:55:38;4.47;;;3.38;;
26211;SDS011;13951;49.516;6.094;2023-07-28T05:58:17;5.47;;;3.80;;
26211;SDS011;13951;49.516;6.094;2023-07-28T06:00:50;4.43;;;3.22;;
26211;SDS011;13951;49.516;6.094;2023-07-28T06:03:43;4.93;;;3.50;;
26211;SDS011;13951;49.516;6.094;2023-07-28T06:06:24;4.40;;;3.50;;
26211;SDS011;13951;49.516;6.094;2023-07-28T06:09:00;4.43;;;2.95;;
26211;SDS011;13951;49.516;6.094;2023-07-28T06:11:35;4.35;;;3.33;;
26211;SDS011;13951;49.516;6.094;2023-07-28T06:14:09;4.13;;;3.20;;
26211;SDS011;13951;49.516;6.094;2023-07-28T06:16:42;3.65;;;2.80;;
26211;SDS011;13951;49.516;6.094;2023-07-28T06:19:15;4.22;;;2.65;;
26211;SDS011;13951;49.516;6.094;2023-07-28T06:21:57;4.72;;;2.30;;
26211;SDS011;13951;49.516;6.094;2023-07-28T06:24:30;3.55;;;2.70;;
26211;SDS011;13951;49.516;6.094;2023-07-28T06:27:05;2.58;;;1.90;;
26211;SDS011;13951;49.516;6.094;2023-07-28T06:29:42;2.92;;;2.25;;
26211;SDS011;13951;49.516;6.094;2023-07-28T06:32:16;3.78;;;2.50;;
26211;SDS011;13951;49.516;6.094;2023-07-28T06:34:49;3.60;;;2.45;;
26211;SDS011;13951;49.516;6.094;2023-07-28T06:37:24;3.40;;;2.40;;
26211;SDS011;13951;49.516;6.094;2023-07-28T06:39:57;3.53;;;2.30;;
26211;SDS011;13951;49.516;6.094;2023-07-28T06:42:30;2.85;;;1.98;;
26211;SDS011;13951;49.516;6.094;2023-07-28T06:45:05;2.65;;;2.28;;
26211;SDS011;13951;49.516;6.094;2023-07-28T06:47:39;2.83;;;2.22;;
26211;SDS011;13951;49.516;6.094;2023-07-28T06:50:12;2.85;;;2.30;;
26211;SDS011;13951;49.516;6.094;2023-07-28T06:52:46;4.43;;;2.80;;
26211;SDS011;13951;49.516;6.094;2023-07-28T06:55:20;4.47;;;3.08;;
26211;SDS011;13951;49.516;6.094;2023-07-28T06:57:55;2.95;;;2.55;;
26211;SDS011;13951;49.516;6.094;2023-07-28T07:00:29;3.55;;;2.83;;
26211;SDS011;13951;49.516;6.094;2023-07-28T07:03:02;4.68;;;2.75;;
26211;SDS011;13951;49.516;6.094;2023-07-28T07:05:35;3.42;;;2.70;;
26211;SDS011;13951;49.516;6.094;2023-07-28T07:08:09;3.65;;;2.90;;
26211;SDS011;13951;49.516;6.094;2023-07-28T07:10:48;3.00;;;2.58;;
26211;SDS011;13951;49.516;6.094;2023-07-28T07:13:25;3.15;;;2.83;;
26211;SDS011;13951;49.516;6.094;2023-07-28T07:15:59;4.30;;;2.22;;
26211;SDS011;13951;49.516;6.094;2023-07-28T07:18:33;5.03;;;1.90;;
26211;SDS011;13951;49.516;6.094;2023-07-28T07:21:06;5.20;;;2.50;;
26211;SDS011;13951;49.516;6.094;2023-07-28T07:23:39;2.75;;;2.30;;
26211;SDS011;13951;49.516;6.094;2023-07-28T07:26:30;2.38;;;2.03;;
26211;SDS011;13951;49.516;6.094;2023-07-28T07:29:04;3.05;;;2.38;;
26211;SDS011;13951;49.516;6.094;2023-07-28T07:31:37;2.40;;;2.20;;
26211;SDS011;13951;49.516;6.094;2023-07-28T07:34:10;2.72;;;2.25;;
26211;SDS011;13951;49.516;6.094;2023-07-28T07:36:43;4.78;;;2.00;;
26211;SDS011;13951;49.516;6.094;2023-07-28T07:39:18;2.80;;;2.45;;
26211;SDS011;13951;49.516;6.094;2023-07-28T07:41:51;2.42;;;2.00;;
26211;SDS011;13951;49.516;6.094;2023-07-28T07:44:24;2.17;;;1.98;;
26211;SDS011;13951;49.516;6.094;2023-07-28T07:47:00;2.50;;;2.03;;
26211;SDS011;13951;49.516;6.094;2023-07-28T07:49:33;2.08;;;1.88;;
26211;SDS011;13951;49.516;6.094;2023-07-28T07:52:07;2.42;;;2.00;;
26211;SDS011;13951;49.516;6.094;2023-07-28T07:54:42;2.28;;;2.00;;
26211;SDS011;13951;49.516;6.094;2023-07-28T07:57:15;1.90;;;1.60;;
26211;SDS011;13951;49.516;6.094;2023-07-28T07:59:48;2.88;;;2.20;;
26211;SDS011;13951;49.516;6.094;2023-07-28T08:02:21;3.90;;;1.80;;
26211;SDS011;13951;49.516;6.094;2023-07-28T08:04:54;2.05;;;1.35;;
26211;SDS011;13951;49.516;6.094;2023-07-28T08:07:28;1.88;;;1.60;;
26211;SDS011;13951;49.516;6.094;2023-07-28T08:10:01;2.85;;;1.77;;
26211;SDS011;13951;49.516;6.094;2023-07-28T08:12:34;1.60;;;1.50;;
26211;SDS011;13951;49.516;6.094;2023-07-28T08:15:07;1.95;;;1.48;;
26211;SDS011;13951;49.516;6.094;2023-07-28T08:17:41;1.63;;;1.52;;
26211;SDS011;13951;49.516;6.094;2023-07-28T08:20:15;1.60;;;1.50;;
26211;SDS011;13951;49.516;6.094;2023-07-28T08:22:48;2.72;;;2.53;;
26211;SDS011;13951;49.516;6.094;2023-07-28T08:25:21;1.98;;;1.70;;
26211;SDS011;13951;49.516;6.094;2023-07-28T08:27:57;1.77;;;1.40;;
26211;SDS011;13951;49.516;6.094;2023-07-28T08:30:30;1.92;;;1.70;;
26211;SDS011;13951;49.516;6.094;2023-07-28T08:33:04;2.45;;;1.42;;
26211;SDS011;13951;49.516;6.094;2023-07-28T08:35:37;1.80;;;1.45;;
26211;SDS011;13951;49.516;6.094;2023-07-28T08:38:11;1.20;;;1.10;;
26211;SDS011;13951;49.516;6.094;2023-07-28T08:40:44;1.40;;;1.30;;
26211;SDS011;13951;49.516;6.094;2023-07-28T08:43:18;1.40;;;1.20;;
26211;SDS011;13951;49.516;6.094;2023-07-28T08:45:51;3.78;;;1.17;;
26211;SDS011;13951;49.516;6.094;2023-07-28T08:48:26;1.08;;;0.90;;
26211;SDS011;13951;49.516;6.094;2023-07-28T08:51:01;1.15;;;1.05;;
26211;SDS011;13951;49.516;6.094;2023-07-28T08:53:36;1.20;;;1.10;;
26211;SDS011;13951;49.516;6.094;2023-07-28T08:56:10;1.38;;;1.15;;
26211;SDS011;13951;49.516;6.094;2023-07-28T08:58:43;1.38;;;0.85;;
26211;SDS011;13951;49.516;6.094;2023-07-28T09:01:17;1.65;;;1.13;;
26211;SDS011;13951;49.516;6.094;2023-07-28T09:03:55;1.00;;;0.90;;
26211;SDS011;13951;49.516;6.094;2023-07-28T09:06:28;2.55;;;1.05;;
26211;SDS011;13951;49.516;6.094;2023-07-28T09:09:06;1.00;;;0.90;;
26211;SDS011;13951;49.516;6.094;2023-07-28T09:11:47;1.02;;;0.93;;
26211;SDS011;13951;49.516;6.094;2023-07-28T09:14:22;1.13;;;0.80;;
26211;SDS011;13951;49.516;6.094;2023-07-28T09:17:11;1.13;;;1.00;;
26211;SDS011;13951;49.516;6.094;2023-07-28T09:19:53;1.10;;;1.00;;
26211;SDS011;13951;49.516;6.094;2023-07-28T09:22:28;2.80;;;1.10;;
26211;SDS011;13951;49.516;6.094;2023-07-28T09:25:10;1.10;;;1.00;;
26211;SDS011;13951;49.516;6.094;2023-07-28T09:27:51;1.00;;;0.93;;
26211;SDS011;13951;49.516;6.094;2023-07-28T09:30:25;3.33;;;1.05;;
26211;SDS011;13951;49.516;6.094;2023-07-28T09:32:59;0.90;;;0.85;;
26211;SDS011;13951;49.516;6.094;2023-07-28T09:35:32;0.80;;;0.80;;
26211;SDS011;13951;49.516;6.094;2023-07-28T09:38:05;1.13;;;0.90;;
26211;SDS011;13951;49.516;6.094;2023-07-28T09:40:38;1.52;;;0.73;;
26211;SDS011;13951;49.516;6.094;2023-07-28T09:43:13;1.63;;;0.88;;
26211;SDS011;13951;49.516;6.094;2023-07-28T09:45:46;1.10;;;0.77;;
26211;SDS011;13951;49.516;6.094;2023-07-28T09:48:19;1.05;;;0.80;;
26211;SDS011;13951;49.516;6.094;2023-07-28T09:50:53;1.30;;;0.90;;
26211;SDS011;13951;49.516;6.094;2023-07-28T09:53:27;1.90;;;0.90;;
26211;SDS011;13951;49.516;6.094;2023-07-28T09:56:01;1.00;;;0.90;;
26211;SDS011;13951;49.516;6.094;2023-07-28T09:58:36;0.95;;;0.82;;
26211;SDS011;13951;49.516;6.094;2023-07-28T10:01:13;0.70;;;0.70;;
26211;SDS011;13951;49.516;6.094;2023-07-28T10:03:47;1.00;;;0.90;;
26211;SDS011;13951;49.516;6.094;2023-07-28T10:06:21;1.55;;;0.90;;
26211;SDS011;13951;49.516;6.094;2023-07-28T10:08:55;1.25;;;0.90;;
26211;SDS011;13951;49.516;6.094;2023-07-28T10:11:28;1.23;;;0.93;;
26211;SDS011;13951;49.516;6.094;2023-07-28T10:14:02;1.10;;;1.00;;
26211;SDS011;13951;49.516;6.094;2023-07-28T10:16:38;1.00;;;0.80;;
26211;SDS011;13951;49.516;6.094;2023-07-28T10:19:12;2.30;;;0.90;;
26211;SDS011;13951;49.516;6.094;2023-07-28T10:22:01;0.80;;;0.80;;
26211;SDS011;13951;49.516;6.094;2023-07-28T10:27:38;1.60;;;0.90;;
26211;SDS011;13951;49.516;6.094;2023-07-28T10:30:16;0.50;;;0.50;;
26211;SDS011;13951;49.516;6.094;2023-07-28T10:32:49;1.10;;;0.60;;
26211;SDS011;13951;49.516;6.094;2023-07-28T10:35:25;2.20;;;0.77;;
26211;SDS011;13951;49.516;6.094;2023-07-28T10:38:22;0.68;;;0.65;;
26211;SDS011;13951;49.516;6.094;2023-07-28T10:43:41;0.70;;;0.70;;
26211;SDS011;13951;49.516;6.094;2023-07-28T10:46:16;0.70;;;0.70;;
26211;SDS011;13951;49.516;6.094;2023-07-28T10:48:51;0.70;;;0.70;;
26211;SDS011;13951;49.516;6.094;2023-07-28T10:51:24;0.68;;;0.68;;
26211;SDS011;13951;49.516;6.094;2023-07-28T10:54:01;0.68;;;0.68;;
26211;SDS011;13951;49.516;6.094;2023-07-28T10:56:37;0.80;;;0.70;;
26211;SDS011;13951;49.516;6.094;2023-07-28T10:59:10;0.77;;;0.68;;
26211;SDS011;13951;49.516;6.094;2023-07-28T11:01:43;0.60;;;0.60;;
26211;SDS011;13951;49.516;6.094;2023-07-28T11:04:17;1.33;;;0.80;;
26211;SDS011;13951;49.516;6.094;2023-07-28T11:06:53;0.70;;;0.70;;
26211;SDS011;13951;49.516;6.094;2023-07-28T11:09:26;2.15;;;0.90;;
26211;SDS011;13951;49.516;6.094;2023-07-28T11:11:59;1.10;;;0.98;;
26211;SDS011;13951;49.516;6.094;2023-07-28T11:14:33;0.85;;;0.85;;
26211;SDS011;13951;49.516;6.094;2023-07-28T11:17:07;3.40;;;0.88;;
26211;SDS011;13951;49.516;6.094;2023-07-28T11:19:40;1.33;;;0.75;;
26211;SDS011;13951;49.516;6.094;2023-07-28T11:22:16;1.25;;;1.10;;
26211;SDS011;13951;49.516;6.094;2023-07-28T11:24:51;1.48;;;0.90;;
26211;SDS011;13951;49.516;6.094;2023-07-28T11:27:24;1.42;;;1.33;;
26211;SDS011;13951;49.516;6.094;2023-07-28T11:29:57;1.48;;;1.20;;
26211;SDS011;13951;49.516;6.094;2023-07-28T11:32:31;1.83;;;1.40;;
26211;SDS011;13951;49.516;6.094;2023-07-28T11:35:09;1.63;;;1.33;;
26211;SDS011;13951;49.516;6.094;2023-07-28T11:37:45;4.00;;;1.45;;
26211;SDS011;13951;49.516;6.094;2023-07-28T11:40:20;1.80;;;1.45;;
26211;SDS011;13951;49.516;6.094;2023-07-28T11:42:54;1.90;;;1.63;;
26211;SDS011;13951;49.516;6.094;2023-07-28T11:45:29;2.42;;;1.88;;
26211;SDS011;13951;49.516;6.094;2023-07-28T11:50:39;2.75;;;1.38;;
26211;SDS011;13951;49.516;6.094;2023-07-28T11:53:14;1.75;;;1.60;;
26211;SDS011;13951;49.516;6.094;2023-07-28T11:55:47;1.80;;;1.40;;
26211;SDS011;13951;49.516;6.094;2023-07-28T11:58:20;2.58;;;1.40;;
26211;SDS011;13951;49.516;6.094;2023-07-28T12:00:57;1.98;;;1.45;;
26211;SDS011;13951;49.516;6.094;2023-07-28T12:03:30;2.53;;;1.40;;
26211;SDS011;13951;49.516;6.094;2023-07-28T12:06:05;1.63;;;1.20;;
26211;SDS011;13951;49.516;6.094;2023-07-28T12:08:45;1.60;;;1.08;;
26211;SDS011;13951;49.516;6.094;2023-07-28T12:11:20;1.00;;;0.90;;
26211;SDS011;13951;49.516;6.094;2023-07-28T12:14:16;1.05;;;0.93;;
26211;SDS011;13951;49.516;6.094;2023-07-28T12:17:12;1.25;;;1.15;;
26211;SDS011;13951;49.516;6.094;2023-07-28T12:22:53;4.15;;;1.10;;
26211;SDS011;13951;49.516;6.094;2023-07-28T12:25:47;1.40;;;1.30;;
26211;SDS011;13951;49.516;6.094;2023-07-28T12:28:21;1.23;;;1.10;;
26211;SDS011;13951;49.516;6.094;2023-07-28T12:30:54;2.53;;;1.38;;
26211;SDS011;13951;49.516;6.094;2023-07-28T12:33:29;1.25;;;1.15;;
26211;SDS011;13951;49.516;6.094;2023-07-28T12:36:05;1.20;;;1.10;;
26211;SDS011;13951;49.516;6.094;2023-07-28T12:38:41;1.70;;;1.30;;
26211;SDS011;13951;49.516;6.094;2023-07-28T12:41:15;1.50;;;1.40;;
26211;SDS011;13951;49.516;6.094;2023-07-28T12:43:53;1.95;;;1.35;;
26211;SDS011;13951;49.516;6.094;2023-07-28T12:46:30;1.27;;;1.10;;
26211;SDS011;13951;49.516;6.094;2023-07-28T12:49:03;1.20;;;1.10;;
26211;SDS011;13951;49.516;6.094;2023-07-28T12:51:38;2.80;;;1.60;;
26211;SDS011;13951;49.516;6.094;2023-07-28T12:54:29;1.33;;;1.23;;
26211;SDS011;13951;49.516;6.094;2023-07-28T12:57:02;2.70;;;1.10;;
26211;SDS011;13951;49.516;6.094;2023-07-28T12:59:38;1.20;;;1.10;;
26211;SDS011;13951;49.516;6.094;2023-07-28T13:02:15;0.98;;;0.98;;
26211;SDS011;13951;49.516;6.094;2023-07-28T13:04:48;1.05;;;0.95;;
26211;SDS011;13951;49.516;6.094;2023-07-28T13:07:21;2.15;;;1.10;;
26211;SDS011;13951;49.516;6.094;2023-07-28T13:09:57;1.20;;;1.10;;
26211;SDS011;13951;49.516;6.094;2023-07-28T13:12:32;0.93;;;0.93;;
26211;SDS011;13951;49.516;6.094;2023-07-28T13:15:08;1.30;;;1.20;;
26211;SDS011;13951;49.516;6.094;2023-07-28T13:17:41;1.00;;;0.90;;
26211;SDS011;13951;49.516;6.094;2023-07-28T13:20:14;3.63;;;1.00;;
26211;SDS011;13951;49.516;6.094;2023-07-28T13:22:47;1.05;;;0.90;;
26211;SDS011;13951;49.516;6.094;2023-07-28T13:25:20;1.45;;;1.00;;
26211;SDS011;13951;49.516;6.094;2023-07-28T13:27:55;1.00;;;0.80;;
26211;SDS011;13951;49.516;6.094;2023-07-28T13:30:28;1.20;;;0.80;;
26211;SDS011;13951;49.516;6.094;2023-07-28T13:33:02;0.80;;;0.80;;
26211;SDS011;13951;49.516;6.094;2023-07-28T13:35:36;0.88;;;0.80;;
26211;SDS011;13951;49.516;6.094;2023-07-28T13:38:09;0.98;;;0.88;;
26211;SDS011;13951;49.516;6.094;2023-07-28T13:40:42;1.27;;;0.90;;
26211;SDS011;13951;49.516;6.094;2023-07-28T13:43:16;1.38;;;0.90;;
26211;SDS011;13951;49.516;6.094;2023-07-28T13:45:49;1.13;;;0.70;;
26211;SDS011;13951;49.516;6.094;2023-07-28T13:48:28;1.27;;;0.90;;
26211;SDS011;13951;49.516;6.094;2023-07-28T13:51:02;0.80;;;0.80;;
26211;SDS011;13951;49.516;6.094;2023-07-28T13:53:35;1.58;;;0.77;;
26211;SDS011;13951;49.516;6.094;2023-07-28T13:56:10;0.80;;;0.80;;
26211;SDS011;13951;49.516;6.094;2023-07-28T13:58:46;1.00;;;0.70;;
26211;SDS011;13951;49.516;6.094;2023-07-28T14:01:19;2.63;;;0.70;;
26211;SDS011;13951;49.516;6.094;2023-07-28T14:03:53;0.90;;;0.85;;
26211;SDS011;13951;49.516;6.094;2023-07-28T14:06:26;0.80;;;0.80;;
26211;SDS011;13951;49.516;6.094;2023-07-28T14:08:59;0.90;;;0.80;;
26211;SDS011;13951;49.516;6.094;2023-07-28T14:11:33;1.00;;;0.80;;
26211;SDS011;13951;49.516;6.094;2023-07-28T14:14:10;0.73;;;0.73;;
26211;SDS011;13951;49.516;6.094;2023-07-28T14:16:43;2.08;;;0.90;;
26211;SDS011;13951;49.516;6.094;2023-07-28T14:19:17;1.27;;;0.90;;
26211;SDS011;13951;49.516;6.094;2023-07-28T14:21:50;0.80;;;0.80;;
26211;SDS011;13951;49.516;6.094;2023-07-28T14:24:25;1.55;;;0.90;;
26211;SDS011;13951;49.516;6.094;2023-07-28T14:26:59;0.70;;;0.70;;
26211;SDS011;13951;49.516;6.094;2023-07-28T14:29:33;1.98;;;0.93;;
26211;SDS011;13951;49.516;6.094;2023-07-28T14:32:06;0.93;;;0.90;;
26211;SDS011;13951;49.516;6.094;2023-07-28T14:34:40;0.60;;;0.60;;
26211;SDS011;13951;49.516;6.094;2023-07-28T14:37:13;0.80;;;0.80;;
26211;SDS011;13951;49.516;6.094;2023-07-28T14:39:47;0.60;;;0.60;;
26211;SDS011;13951;49.516;6.094;2023-07-28T14:42:20;1.98;;;0.70;;
26211;SDS011;13951;49.516;6.094;2023-07-28T14:44:53;0.75;;;0.60;;
26211;SDS011;13951;49.516;6.094;2023-07-28T14:47:27;0.70;;;0.70;;
26211;SDS011;13951;49.516;6.094;2023-07-28T14:50:00;0.65;;;0.65;;
26211;SDS011;13951;49.516;6.094;2023-07-28T14:52:34;1.55;;;0.60;;
26211;SDS011;13951;49.516;6.094;2023-07-28T14:55:07;0.90;;;0.60;;
26211;SDS011;13951;49.516;6.094;2023-07-28T14:57:40;0.60;;;0.60;;
26211;SDS011;13951;49.516;6.094;2023-07-28T15:00:13;1.77;;;0.57;;
26211;SDS011;13951;49.516;6.094;2023-07-28T15:02:47;0.60;;;0.60;;
26211;SDS011;13951;49.516;6.094;2023-07-28T15:05:20;0.88;;;0.70;;
26211;SDS011;13951;49.516;6.094;2023-07-28T15:07:53;0.65;;;0.60;;
26211;SDS011;13951;49.516;6.094;2023-07-28T15:10:26;0.50;;;0.50;;
26211;SDS011;13951;49.516;6.094;2023-07-28T15:13:01;0.50;;;0.50;;
26211;SDS011;13951;49.516;6.094;2023-07-28T15:15:36;0.50;;;0.50;;
26211;SDS011;13951;49.516;6.094;2023-07-28T15:18:09;0.50;;;0.50;;
26211;SDS011;13951;49.516;6.094;2023-07-28T15:20:42;0.63;;;0.50;;
26211;SDS011;13951;49.516;6.094;2023-07-28T15:23:15;0.60;;;0.60;;
26211;SDS011;13951;49.516;6.094;2023-07-28T15:25:49;0.50;;;0.50;;
26211;SDS011;13951;49.516;6.094;2023-07-28T15:28:25;0.30;;;0.30;;
26211;SDS011;13951;49.516;6.094;2023-07-28T15:30:58;0.90;;;0.57;;
26211;SDS011;13951;49.516;6.094;2023-07-28T15:33:32;0.30;;;0.30;;
26211;SDS011;13951;49.516;6.094;2023-07-28T15:36:05;1.05;;;0.45;;
26211;SDS011;13951;49.516;6.094;2023-07-28T15:38:38;0.50;;;0.50;;
26211;SDS011;13951;49.516;6.094;2023-07-28T15:41:11;0.88;;;0.40;;
26211;SDS011;13951;49.516;6.094;2023-07-28T15:43:45;0.50;;;0.50;;
26211;SDS011;13951;49.516;6.094;2023-07-28T15:46:18;0.57;;;0.57;;
26211;SDS011;13951;49.516;6.094;2023-07-28T15:48:52;0.63;;;0.60;;
26211;SDS011;13951;49.516;6.094;2023-07-28T15:51:26;2.88;;;0.60;;
26211;SDS011;13951;49.516;6.094;2023-07-28T15:53:59;0.45;;;0.45;;
26211;SDS011;13951;49.516;6.094;2023-07-28T15:56:33;0.50;;;0.47;;
26211;SDS011;13951;49.516;6.094;2023-07-28T15:59:07;0.80;;;0.50;;
26211;SDS011;13951;49.516;6.094;2023-07-28T16:01:40;1.30;;;0.70;;
26211;SDS011;13951;49.516;6.094;2023-07-28T16:04:14;1.65;;;0.40;;
26211;SDS011;13951;49.516;6.094;2023-07-28T16:06:47;0.40;;;0.40;;
26211;SDS011;13951;49.516;6.094;2023-07-28T16:09:20;0.80;;;0.80;;
26211;SDS011;13951;49.516;6.094;2023-07-28T16:11:53;0.50;;;0.50;;
26211;SDS011;13951;49.516;6.094;2023-07-28T16:14:26;0.77;;;0.55;;
26211;SDS011;13951;49.516;6.094;2023-07-28T16:17:00;0.52;;;0.40;;
26211;SDS011;13951;49.516;6.094;2023-07-28T16:19:34;0.70;;;0.55;;
26211;SDS011;13951;49.516;6.094;2023-07-28T16:22:13;0.60;;;0.60;;
26211;SDS011;13951;49.516;6.094;2023-07-28T16:24:46;0.82;;;0.60;;
26211;SDS011;13951;49.516;6.094;2023-07-28T16:27:20;2.00;;;0.82;;
26211;SDS011;13951;49.516;6.094;2023-07-28T16:29:54;0.60;;;0.60;;
26211;SDS011;13951;49.516;6.094;2023-07-28T16:32:27;0.60;;;0.60;;
26211;SDS011;13951;49.516;6.094;2023-07-28T16:35:04;0.80;;;0.60;;
26211;SDS011;13951;49.516;6.094;2023-07-28T16:37:37;0.65;;;0.50;;
26211;SDS011;13951;49.516;6.094;2023-07-28T16:40:10;0.65;;;0.65;;
26211;SDS011;13951;49.516;6.094;2023-07-28T16:42:43;1.25;;;0.70;;
26211;SDS011;13951;49.516;6.094;2023-07-28T16:45:19;0.70;;;0.70;;
26211;SDS011;13951;49.516;6.094;2023-07-28T16:47:52;1.83;;;0.60;;
26211;SDS011;13951;49.516;6.094;2023-07-28T16:50:26;1.55;;;0.70;;
26211;SDS011;13951;49.516;6.094;2023-07-28T16:53:01;1.58;;;0.90;;
26211;SDS011;13951;49.516;6.094;2023-07-28T16:55:34;0.77;;;0.68;;
26211;SDS011;13951;49.516;6.094;2023-07-28T16:58:07;0.60;;;0.60;;
26211;SDS011;13951;49.516;6.094;2023-07-28T17:00:41;0.60;;;0.57;;
26211;SDS011;13951;49.516;6.094;2023-07-28T17:03:17;1.63;;;0.60;;
26211;SDS011;13951;49.516;6.094;2023-07-28T17:05:50;0.40;;;0.40;;
26211;SDS011;13951;49.516;6.094;2023-07-28T17:08:25;1.25;;;0.65;;
26211;SDS011;13951;49.516;6.094;2023-07-28T17:10:58;0.60;;;0.60;;
26211;SDS011;13951;49.516;6.094;2023-07-28T17:13:31;1.17;;;0.55;;
26211;SDS011;13951;49.516;6.094;2023-07-28T17:16:04;0.50;;;0.50;;
26211;SDS011;13951;49.516;6.094;2023-07-28T17:18:38;1.23;;;0.50;;
26211;SDS011;13951;49.516;6.094;2023-07-28T17:21:11;0.55;;;0.40;;
26211;SDS011;13951;49.516;6.094;2023-07-28T17:23:44;0.77;;;0.70;;
26211;SDS011;13951;49.516;6.094;2023-07-28T17:26:18;0.50;;;0.50;;
26211;SDS011;13951;49.516;6.094;2023-07-28T17:28:51;0.50;;;0.43;;
26211;SDS011;13951;49.516;6.094;2023-07-28T17:31:24;1.98;;;0.43;;
26211;SDS011;13951;49.516;6.094;2023-07-28T17:33:58;2.15;;;0.65;;
26211;SDS011;13951;49.516;6.094;2023-07-28T17:36:31;0.50;;;0.50;;
26211;SDS011;13951;49.516;6.094;2023-07-28T17:39:04;0.60;;;0.60;;
26211;SDS011;13951;49.516;6.094;2023-07-28T17:41:39;0.68;;;0.45;;
26211;SDS011;13951;49.516;6.094;2023-07-28T17:44:12;1.42;;;0.60;;
26211;SDS011;13951;49.516;6.094;2023-07-28T17:46:45;1.52;;;0.50;;
26211;SDS011;13951;49.516;6.094;2023-07-28T17:49:18;0.65;;;0.50;;
26211;SDS011;13951;49.516;6.094;2023-07-28T17:51:52;1.05;;;0.60;;
26211;SDS011;13951;49.516;6.094;2023-07-28T17:54:26;0.60;;;0.60;;
26211;SDS011;13951;49.516;6.094;2023-07-28T17:56:59;0.68;;;0.52;;
26211;SDS011;13951;49.516;6.094;2023-07-28T17:59:32;0.80;;;0.52;;
26211;SDS011;13951;49.516;6.094;2023-07-28T18:02:06;1.67;;;0.50;;
26211;SDS011;13951;49.516;6.094;2023-07-28T18:04:39;0.50;;;0.50;;
26211;SDS011;13951;49.516;6.094;2023-07-28T18:07:12;0.68;;;0.60;;
26211;SDS011;13951;49.516;6.094;2023-07-28T18:09:45;0.73;;;0.70;;
26211;SDS011;13951;49.516;6.094;2023-07-28T18:12:19;1.30;;;0.80;;
26211;SDS011;13951;49.516;6.094;2023-07-28T18:14:54;0.63;;;0.60;;
26211;SDS011;13951;49.516;6.094;2023-07-28T18:17:27;0.50;;;0.50;;
26211;SDS011;13951;49.516;6.094;2023-07-28T18:20:00;0.70;;;0.70;;
26211;SDS011;13951;49.516;6.094;2023-07-28T18:22:33;0.50;;;0.50;;
26211;SDS011;13951;49.516;6.094;2023-07-28T18:25:07;1.20;;;0.70;;
26211;SDS011;13951;49.516;6.094;2023-07-28T18:27:40;0.52;;;0.52;;
26211;SDS011;13951;49.516;6.094;2023-07-28T18:30:13;0.60;;;0.60;;
26211;SDS011;13951;49.516;6.094;2023-07-28T18:32:48;0.98;;;0.57;;
26211;SDS011;13951;49.516;6.094;2023-07-28T18:35:23;1.02;;;0.88;;
26211;SDS011;13951;49.516;6.094;2023-07-28T18:37:56;0.70;;;0.55;;
26211;SDS011;13951;49.516;6.094;2023-07-28T18:40:29;0.73;;;0.60;;
26211;SDS011;13951;49.516;6.094;2023-07-28T18:43:03;1.60;;;0.70;;
26211;SDS011;13951;49.516;6.094;2023-07-28T18:45:36;0.70;;;0.70;;
26211;SDS011;13951;49.516;6.094;2023-07-28T18:48:12;0.75;;;0.73;;
26211;SDS011;13951;49.516;6.094;2023-07-28T18:50:46;0.70;;;0.70;;
26211;SDS011;13951;49.516;6.094;2023-07-28T18:53:20;0.50;;;0.50;;
26211;SDS011;13951;49.516;6.094;2023-07-28T18:55:53;1.75;;;0.60;;
26211;SDS011;13951;49.516;6.094;2023-07-28T18:58:26;0.77;;;0.57;;
26211;SDS011;13951;49.516;6.094;2023-07-28T19:01:00;1.58;;;0.63;;
26211;SDS011;13951;49.516;6.094;2023-07-28T19:03:33;1.08;;;0.50;;
26211;SDS011;13951;49.516;6.094;2023-07-28T19:06:06;1.17;;;0.70;;
26211;SDS011;13951;49.516;6.094;2023-07-28T19:08:39;2.38;;;0.93;;
26211;SDS011;13951;49.516;6.094;2023-07-28T19:11:18;2.08;;;0.90;;
26211;SDS011;13951;49.516;6.094;2023-07-28T19:13:51;2.17;;;0.77;;
26211;SDS011;13951;49.516;6.094;2023-07-28T19:16:25;0.65;;;0.65;;
26211;SDS011;13951;49.516;6.094;2023-07-28T19:18:58;1.05;;;0.75;;
26211;SDS011;13951;49.516;6.094;2023-07-28T19:21:31;1.17;;;0.77;;
26211;SDS011;13951;49.516;6.094;2023-07-28T19:24:05;0.88;;;0.70;;
26211;SDS011;13951;49.516;6.094;2023-07-28T19:26:39;0.75;;;0.60;;
26211;SDS011;13951;49.516;6.094;2023-07-28T19:29:12;0.50;;;0.50;;
26211;SDS011;13951;49.516;6.094;2023-07-28T19:31:47;1.13;;;0.60;;
26211;SDS011;13951;49.516;6.094;2023-07-28T19:34:20;0.93;;;0.70;;
26211;SDS011;13951;49.516;6.094;2023-07-28T19:36:53;0.65;;;0.65;;
26211;SDS011;13951;49.516;6.094;2023-07-28T19:39:27;1.90;;;0.70;;
26211;SDS011;13951;49.516;6.094;2023-07-28T19:42:00;0.80;;;0.65;;
26211;SDS011;13951;49.516;6.094;2023-07-28T19:44:33;0.65;;;0.60;;
26211;SDS011;13951;49.516;6.094;2023-07-28T19:47:13;4.53;;;0.85;;
26211;SDS011;13951;49.516;6.094;2023-07-28T19:49:46;0.65;;;0.65;;
26211;SDS011;13951;49.516;6.094;2023-07-28T19:52:38;2.72;;;0.80;;
26211;SDS011;13951;49.516;6.094;2023-07-28T19:55:11;0.90;;;0.90;;
26211;SDS011;13951;49.516;6.094;2023-07-28T19:57:45;1.05;;;0.95;;
26211;SDS011;13951;49.516;6.094;2023-07-28T20:00:18;1.98;;;1.05;;
26211;SDS011;13951;49.516;6.094;2023-07-28T20:02:51;1.02;;;0.80;;
26211;SDS011;13951;49.516;6.094;2023-07-28T20:05:25;1.58;;;0.75;;
26211;SDS011;13951;49.516;6.094;2023-07-28T20:07:58;0.95;;;0.80;;
26211;SDS011;13951;49.516;6.094;2023-07-28T20:10:31;0.77;;;0.73;;